sensor_id;sensor_type;location;lat;lon;timestamp;temperature;humidity
23087;DHT22;11712;51.134;4.156;2022-11-15T00:00:28;11.20;99.90
23087;DHT22;11712;51.134;4.156;2022-11-15T00:02:54;11.10;99.90
23087;DHT22;11712;51.134;4.156;2022-11-15T00:05:20;11.10;99.90
23087;DHT22;11712;51.134;4.156;2022-11-15T00:07:46;11.20;99.90
23087;DHT22;11712;51.134;4.156;2022-11-15T00:10:12;11.30;99.90
23087;DHT22;11712;51.134;4.156;2022-11-15T00:12:37;11.40;99.90
23087;DHT22;11712;51.134;4.156;2022-11-15T00:15:03;11.50;99.90
23087;DHT22;11712;51.134;4.156;2022-11-15T00:17:29;11.40;99.90
23087;DHT22;11712;51.134;4.156;2022-11-15T00:19:55;11.50;99.90
23087;DHT22;11712;51.134;4.156;2022-11-15T00:22:21;11.50;99.90
23087;DHT22;11712;51.134;4.156;2022-11-15T00:24:47;11.50;99.90
23087;DHT22;11712;51.134;4.156;2022-11-15T00:27:13;11.50;99.90
23087;DHT22;11712;51.134;4.156;2022-11-15T00:29:38;11.50;99.90
23087;DHT22;11712;51.134;4.156;2022-11-15T00:32:09;11.60;99.90
23087;DHT22;11712;51.134;4.156;2022-11-15T00:34:35;11.60;99.90
23087;DHT22;11712;51.134;4.156;2022-11-15T00:37:01;11.60;99.90
23087;DHT22;11712;51.134;4.156;2022-11-15T00:39:27;11.60;99.90
23087;DHT22;11712;51.134;4.156;2022-11-15T00:41:52;11.60;99.90
23087;DHT22;11712;51.134;4.156;2022-11-15T00:44:18;11.60;99.90
23087;DHT22;11712;51.134;4.156;2022-11-15T00:46:44;11.70;99.90
23087;DHT22;11712;51.134;4.156;2022-11-15T00:49:09;11.70;99.90
23087;DHT22;11712;51.134;4.156;2022-11-15T00:51:35;11.70;99.90
23087;DHT22;11712;51.134;4.156;2022-11-15T00:54:01;11.70;99.90
23087;DHT22;11712;51.134;4.156;2022-11-15T00:56:26;11.80;99.90
23087;DHT22;11712;51.134;4.156;2022-11-15T00:58:52;11.70;99.90
23087;DHT22;11712;51.134;4.156;2022-11-15T01:01:18;11.70;99.90
23087;DHT22;11712;51.134;4.156;2022-11-15T01:03:43;11.60;99.90
23087;DHT22;11712;51.134;4.156;2022-11-15T01:06:11;11.50;99.90
23087;DHT22;11712;51.134;4.156;2022-11-15T01:08:38;11.40;99.90
23087;DHT22;11712;51.134;4.156;2022-11-15T01:11:07;11.40;99.90
23087;DHT22;11712;51.134;4.156;2022-11-15T01:13:34;11.30;99.90
23087;DHT22;11712;51.134;4.156;2022-11-15T01:16:15;11.30;99.90
23087;DHT22;11712;51.134;4.156;2022-11-15T01:18:43;11.40;99.90
23087;DHT22;11712;51.134;4.156;2022-11-15T01:21:10;11.50;99.90
23087;DHT22;11712;51.134;4.156;2022-11-15T01:23:36;11.50;99.90
23087;DHT22;11712;51.134;4.156;2022-11-15T01:26:04;11.60;99.90
23087;DHT22;11712;51.134;4.156;2022-11-15T01:28:34;11.60;99.90
23087;DHT22;11712;51.134;4.156;2022-11-15T01:31:01;11.60;99.90
23087;DHT22;11712;51.134;4.156;2022-11-15T01:33:28;11.70;99.90
23087;DHT22;11712;51.134;4.156;2022-11-15T01:35:54;11.80;99.90
23087;DHT22;11712;51.134;4.156;2022-11-15T01:38:20;11.80;99.90
23087;DHT22;11712;51.134;4.156;2022-11-15T01:40:46;11.80;99.90
23087;DHT22;11712;51.134;4.156;2022-11-15T01:43:27;11.90;99.90
23087;DHT22;11712;51.134;4.156;2022-11-15T01:45:56;11.90;99.90
23087;DHT22;11712;51.134;4.156;2022-11-15T01:48:33;12.00;99.90
23087;DHT22;11712;51.134;4.156;2022-11-15T01:51:02;12.00;99.90
23087;DHT22;11712;51.134;4.156;2022-11-15T01:53:30;12.00;99.90
23087;DHT22;11712;51.134;4.156;2022-11-15T01:55:57;12.00;99.90
23087;DHT22;11712;51.134;4.156;2022-11-15T01:58:24;12.10;99.90
23087;DHT22;11712;51.134;4.156;2022-11-15T02:00:50;12.00;99.90
23087;DHT22;11712;51.134;4.156;2022-11-15T02:03:17;12.20;99.90
23087;DHT22;11712;51.134;4.156;2022-11-15T02:05:43;12.10;99.90
23087;DHT22;11712;51.134;4.156;2022-11-15T02:08:10;12.00;99.90
23087;DHT22;11712;51.134;4.156;2022-11-15T02:10:46;12.10;99.90
23087;DHT22;11712;51.134;4.156;2022-11-15T02:13:15;11.90;99.90
23087;DHT22;11712;51.134;4.156;2022-11-15T02:21:15;12.10;99.90
23087;DHT22;11712;51.134;4.156;2022-11-15T02:32:20;12.10;99.90
23087;DHT22;11712;51.134;4.156;2022-11-15T02:38:12;12.10;99.90
23087;DHT22;11712;51.134;4.156;2022-11-15T02:40:53;12.10;99.90
23087;DHT22;11712;51.134;4.156;2022-11-15T02:43:31;12.10;99.90
23087;DHT22;11712;51.134;4.156;2022-11-15T02:46:24;12.20;99.90
23087;DHT22;11712;51.134;4.156;2022-11-15T02:49:13;12.20;99.90
23087;DHT22;11712;51.134;4.156;2022-11-15T02:51:41;12.30;99.90
23087;DHT22;11712;51.134;4.156;2022-11-15T02:54:09;12.30;99.90
23087;DHT22;11712;51.134;4.156;2022-11-15T02:56:36;12.20;99.90
23087;DHT22;11712;51.134;4.156;2022-11-15T03:07:29;12.00;99.90
23087;DHT22;11712;51.134;4.156;2022-11-15T03:10:08;12.00;99.90
23087;DHT22;11712;51.134;4.156;2022-11-15T03:18:06;11.90;99.90
23087;DHT22;11712;51.134;4.156;2022-11-15T03:20:36;11.80;99.90
23087;DHT22;11712;51.134;4.156;2022-11-15T03:23:09;11.90;99.90
23087;DHT22;11712;51.134;4.156;2022-11-15T03:25:40;11.80;99.90
23087;DHT22;11712;51.134;4.156;2022-11-15T03:28:09;11.80;99.90
23087;DHT22;11712;51.134;4.156;2022-11-15T03:30:38;11.80;99.90
23087;DHT22;11712;51.134;4.156;2022-11-15T03:33:04;11.90;99.90
23087;DHT22;11712;51.134;4.156;2022-11-15T03:35:34;12.00;99.90
23087;DHT22;11712;51.134;4.156;2022-11-15T03:40:37;11.80;99.90
23087;DHT22;11712;51.134;4.156;2022-11-15T03:43:22;11.80;99.90
23087;DHT22;11712;51.134;4.156;2022-11-15T03:45:58;11.90;99.90
23087;DHT22;11712;51.134;4.156;2022-11-15T03:48:30;11.90;99.90
23087;DHT22;11712;51.134;4.156;2022-11-15T03:50:58;11.80;99.90
23087;DHT22;11712;51.134;4.156;2022-11-15T03:53:24;11.80;99.90
23087;DHT22;11712;51.134;4.156;2022-11-15T03:55:50;11.70;99.90
23087;DHT22;11712;51.134;4.156;2022-11-15T03:58:16;11.70;99.90
23087;DHT22;11712;51.134;4.156;2022-11-15T04:00:41;11.70;99.90
23087;DHT22;11712;51.134;4.156;2022-11-15T04:03:07;11.70;99.90
23087;DHT22;11712;51.134;4.156;2022-11-15T04:05:33;11.70;99.90
23087;DHT22;11712;51.134;4.156;2022-11-15T04:07:59;11.60;99.90
23087;DHT22;11712;51.134;4.156;2022-11-15T04:10:25;11.60;99.90
23087;DHT22;11712;51.134;4.156;2022-11-15T04:12:50;11.60;99.90
23087;DHT22;11712;51.134;4.156;2022-11-15T04:15:23;11.50;99.90
23087;DHT22;11712;51.134;4.156;2022-11-15T04:17:53;11.40;99.90
23087;DHT22;11712;51.134;4.156;2022-11-15T04:23:10;11.30;99.90
23087;DHT22;11712;51.134;4.156;2022-11-15T04:25:56;11.30;99.90
23087;DHT22;11712;51.134;4.156;2022-11-15T04:28:22;11.40;99.90
23087;DHT22;11712;51.134;4.156;2022-11-15T04:30:48;11.40;99.90
23087;DHT22;11712;51.134;4.156;2022-11-15T04:33:14;11.40;99.90
23087;DHT22;11712;51.134;4.156;2022-11-15T04:35:40;11.30;99.90
23087;DHT22;11712;51.134;4.156;2022-11-15T04:38:08;11.30;99.90
23087;DHT22;11712;51.134;4.156;2022-11-15T04:40:35;11.30;99.90
23087;DHT22;11712;51.134;4.156;2022-11-15T04:43:01;11.30;99.90
23087;DHT22;11712;51.134;4.156;2022-11-15T04:45:26;11.30;99.90
23087;DHT22;11712;51.134;4.156;2022-11-15T04:47:52;11.30;99.90
23087;DHT22;11712;51.134;4.156;2022-11-15T04:50:17;11.30;99.90
23087;DHT22;11712;51.134;4.156;2022-11-15T04:52:50;11.20;99.90
23087;DHT22;11712;51.134;4.156;2022-11-15T04:55:16;11.20;99.90
23087;DHT22;11712;51.134;4.156;2022-11-15T04:57:42;11.20;99.90
23087;DHT22;11712;51.134;4.156;2022-11-15T05:00:11;11.10;99.90
23087;DHT22;11712;51.134;4.156;2022-11-15T05:02:37;11.00;99.90
23087;DHT22;11712;51.134;4.156;2022-11-15T05:05:21;11.00;99.90
23087;DHT22;11712;51.134;4.156;2022-11-15T05:07:46;10.90;99.90
23087;DHT22;11712;51.134;4.156;2022-11-15T05:10:12;10.90;99.90
23087;DHT22;11712;51.134;4.156;2022-11-15T05:12:38;10.70;99.90
23087;DHT22;11712;51.134;4.156;2022-11-15T05:15:03;10.70;99.90
23087;DHT22;11712;51.134;4.156;2022-11-15T05:17:29;10.70;99.90
23087;DHT22;11712;51.134;4.156;2022-11-15T05:19:55;10.60;99.90
23087;DHT22;11712;51.134;4.156;2022-11-15T05:22:21;10.50;99.90
23087;DHT22;11712;51.134;4.156;2022-11-15T05:24:47;10.50;99.90
23087;DHT22;11712;51.134;4.156;2022-11-15T05:27:12;10.50;99.90
23087;DHT22;11712;51.134;4.156;2022-11-15T05:29:38;10.40;99.90
23087;DHT22;11712;51.134;4.156;2022-11-15T05:32:05;10.40;99.90
23087;DHT22;11712;51.134;4.156;2022-11-15T05:34:31;10.50;99.90
23087;DHT22;11712;51.134;4.156;2022-11-15T05:36:57;10.40;99.90
23087;DHT22;11712;51.134;4.156;2022-11-15T05:39:24;10.30;99.90
23087;DHT22;11712;51.134;4.156;2022-11-15T05:41:59;10.40;99.90
23087;DHT22;11712;51.134;4.156;2022-11-15T05:44:27;10.40;99.90
23087;DHT22;11712;51.134;4.156;2022-11-15T05:46:55;10.30;99.90
23087;DHT22;11712;51.134;4.156;2022-11-15T05:49:26;10.30;99.90
23087;DHT22;11712;51.134;4.156;2022-11-15T05:52:51;10.30;99.90
23087;DHT22;11712;51.134;4.156;2022-11-15T05:55:17;10.20;99.90
23087;DHT22;11712;51.134;4.156;2022-11-15T05:57:43;10.20;99.90
23087;DHT22;11712;51.134;4.156;2022-11-15T06:00:09;10.20;99.90
23087;DHT22;11712;51.134;4.156;2022-11-15T06:02:35;10.10;99.90
23087;DHT22;11712;51.134;4.156;2022-11-15T06:05:01;10.10;99.90
23087;DHT22;11712;51.134;4.156;2022-11-15T06:07:27;10.20;99.90
23087;DHT22;11712;51.134;4.156;2022-11-15T06:09:53;10.20;99.90
23087;DHT22;11712;51.134;4.156;2022-11-15T06:12:19;10.20;99.90
23087;DHT22;11712;51.134;4.156;2022-11-15T06:14:45;10.30;99.90
23087;DHT22;11712;51.134;4.156;2022-11-15T06:17:10;10.20;99.90
23087;DHT22;11712;51.134;4.156;2022-11-15T06:19:36;10.20;99.90
23087;DHT22;11712;51.134;4.156;2022-11-15T06:22:02;10.20;99.90
23087;DHT22;11712;51.134;4.156;2022-11-15T06:24:27;10.10;99.90
23087;DHT22;11712;51.134;4.156;2022-11-15T06:26:53;10.20;99.90
23087;DHT22;11712;51.134;4.156;2022-11-15T06:29:19;10.30;99.90
23087;DHT22;11712;51.134;4.156;2022-11-15T06:31:44;10.40;99.90
23087;DHT22;11712;51.134;4.156;2022-11-15T06:34:10;10.60;99.90
23087;DHT22;11712;51.134;4.156;2022-11-15T06:36:36;10.60;99.90
23087;DHT22;11712;51.134;4.156;2022-11-15T06:39:05;10.60;99.90
23087;DHT22;11712;51.134;4.156;2022-11-15T06:41:34;10.50;99.90
23087;DHT22;11712;51.134;4.156;2022-11-15T06:44:00;10.50;99.90
23087;DHT22;11712;51.134;4.156;2022-11-15T06:46:25;10.50;99.90
23087;DHT22;11712;51.134;4.156;2022-11-15T06:48:52;10.40;99.90
23087;DHT22;11712;51.134;4.156;2022-11-15T06:52:44;10.20;99.90
23087;DHT22;11712;51.134;4.156;2022-11-15T06:55:10;10.10;99.90
23087;DHT22;11712;51.134;4.156;2022-11-15T06:57:36;10.10;99.90
23087;DHT22;11712;51.134;4.156;2022-11-15T07:00:06;10.10;99.90
23087;DHT22;11712;51.134;4.156;2022-11-15T07:02:32;10.10;99.90
23087;DHT22;11712;51.134;4.156;2022-11-15T07:04:57;10.10;99.90
23087;DHT22;11712;51.134;4.156;2022-11-15T07:07:23;10.10;99.90
23087;DHT22;11712;51.134;4.156;2022-11-15T07:09:48;10.10;99.90
23087;DHT22;11712;51.134;4.156;2022-11-15T07:12:14;10.00;99.90
23087;DHT22;11712;51.134;4.156;2022-11-15T07:14:40;10.10;99.90
23087;DHT22;11712;51.134;4.156;2022-11-15T07:17:05;10.10;99.90
23087;DHT22;11712;51.134;4.156;2022-11-15T07:19:31;10.10;99.90
23087;DHT22;11712;51.134;4.156;2022-11-15T07:21:57;10.20;99.90
23087;DHT22;11712;51.134;4.156;2022-11-15T07:24:22;10.20;99.90
23087;DHT22;11712;51.134;4.156;2022-11-15T07:26:48;10.20;99.90
23087;DHT22;11712;51.134;4.156;2022-11-15T07:29:14;10.20;99.90
23087;DHT22;11712;51.134;4.156;2022-11-15T07:31:39;10.30;99.90
23087;DHT22;11712;51.134;4.156;2022-11-15T07:34:05;10.30;99.90
23087;DHT22;11712;51.134;4.156;2022-11-15T07:36:31;10.30;99.90
23087;DHT22;11712;51.134;4.156;2022-11-15T07:38:56;10.30;99.90
23087;DHT22;11712;51.134;4.156;2022-11-15T07:41:22;10.30;99.90
23087;DHT22;11712;51.134;4.156;2022-11-15T07:43:51;10.30;99.90
23087;DHT22;11712;51.134;4.156;2022-11-15T07:46:16;10.30;99.90
23087;DHT22;11712;51.134;4.156;2022-11-15T07:48:42;10.40;99.90
23087;DHT22;11712;51.134;4.156;2022-11-15T07:51:13;10.40;99.90
23087;DHT22;11712;51.134;4.156;2022-11-15T07:53:39;10.30;99.90
23087;DHT22;11712;51.134;4.156;2022-11-15T07:56:08;10.30;99.90
23087;DHT22;11712;51.134;4.156;2022-11-15T07:58:35;10.30;99.90
23087;DHT22;11712;51.134;4.156;2022-11-15T08:01:05;10.40;99.90
23087;DHT22;11712;51.134;4.156;2022-11-15T08:03:32;10.40;99.90
23087;DHT22;11712;51.134;4.156;2022-11-15T08:05:57;10.40;99.90
23087;DHT22;11712;51.134;4.156;2022-11-15T08:08:23;10.40;99.90
23087;DHT22;11712;51.134;4.156;2022-11-15T08:10:49;10.60;99.90
23087;DHT22;11712;51.134;4.156;2022-11-15T08:13:14;10.50;99.90
23087;DHT22;11712;51.134;4.156;2022-11-15T08:15:41;10.70;99.90
23087;DHT22;11712;51.134;4.156;2022-11-15T08:18:11;10.60;99.90
23087;DHT22;11712;51.134;4.156;2022-11-15T08:20:37;10.60;99.90
23087;DHT22;11712;51.134;4.156;2022-11-15T08:23:04;10.70;99.90
23087;DHT22;11712;51.134;4.156;2022-11-15T08:25:31;10.80;99.90
23087;DHT22;11712;51.134;4.156;2022-11-15T08:28:00;10.70;99.90
23087;DHT22;11712;51.134;4.156;2022-11-15T08:30:26;10.70;99.90
23087;DHT22;11712;51.134;4.156;2022-11-15T08:32:53;10.70;99.90
23087;DHT22;11712;51.134;4.156;2022-11-15T08:35:20;10.60;99.90
23087;DHT22;11712;51.134;4.156;2022-11-15T08:37:46;10.70;99.90
23087;DHT22;11712;51.134;4.156;2022-11-15T08:40:12;10.70;99.90
23087;DHT22;11712;51.134;4.156;2022-11-15T08:42:39;10.70;99.90
23087;DHT22;11712;51.134;4.156;2022-11-15T08:45:06;10.70;99.90
23087;DHT22;11712;51.134;4.156;2022-11-15T08:47:32;10.80;99.90
23087;DHT22;11712;51.134;4.156;2022-11-15T08:49:58;10.90;99.90
23087;DHT22;11712;51.134;4.156;2022-11-15T08:52:35;11.00;99.90
23087;DHT22;11712;51.134;4.156;2022-11-15T08:55:01;10.90;99.90
23087;DHT22;11712;51.134;4.156;2022-11-15T08:57:30;11.00;99.90
23087;DHT22;11712;51.134;4.156;2022-11-15T08:59:56;11.10;99.90
23087;DHT22;11712;51.134;4.156;2022-11-15T09:02:22;11.40;99.90
23087;DHT22;11712;51.134;4.156;2022-11-15T09:04:47;11.40;99.90
23087;DHT22;11712;51.134;4.156;2022-11-15T09:07:13;11.60;99.90
23087;DHT22;11712;51.134;4.156;2022-11-15T09:09:40;11.60;99.90
23087;DHT22;11712;51.134;4.156;2022-11-15T09:12:07;11.70;99.90
23087;DHT22;11712;51.134;4.156;2022-11-15T09:14:33;11.80;99.90
23087;DHT22;11712;51.134;4.156;2022-11-15T09:16:59;11.80;99.90
23087;DHT22;11712;51.134;4.156;2022-11-15T09:19:25;11.80;99.90
23087;DHT22;11712;51.134;4.156;2022-11-15T09:21:51;11.90;99.90
23087;DHT22;11712;51.134;4.156;2022-11-15T09:24:16;12.10;99.90
23087;DHT22;11712;51.134;4.156;2022-11-15T09:26:43;12.10;99.90
23087;DHT22;11712;51.134;4.156;2022-11-15T09:29:09;12.10;99.90
23087;DHT22;11712;51.134;4.156;2022-11-15T09:31:34;12.10;99.90
23087;DHT22;11712;51.134;4.156;2022-11-15T09:34:00;12.10;99.90
23087;DHT22;11712;51.134;4.156;2022-11-15T09:36:26;12.10;99.90
23087;DHT22;11712;51.134;4.156;2022-11-15T09:38:51;12.20;99.90
23087;DHT22;11712;51.134;4.156;2022-11-15T09:44:39;12.30;99.90
23087;DHT22;11712;51.134;4.156;2022-11-15T09:49:41;12.50;99.90
23087;DHT22;11712;51.134;4.156;2022-11-15T09:52:07;12.60;99.90
23087;DHT22;11712;51.134;4.156;2022-11-15T09:54:43;12.80;99.90
23087;DHT22;11712;51.134;4.156;2022-11-15T09:57:20;12.80;99.90
23087;DHT22;11712;51.134;4.156;2022-11-15T10:05:46;12.90;99.90
23087;DHT22;11712;51.134;4.156;2022-11-15T10:11:08;13.20;99.90
23087;DHT22;11712;51.134;4.156;2022-11-15T10:13:37;13.10;99.90
23087;DHT22;11712;51.134;4.156;2022-11-15T10:16:12;13.20;99.90
23087;DHT22;11712;51.134;4.156;2022-11-15T10:24:29;12.90;99.90
23087;DHT22;11712;51.134;4.156;2022-11-15T10:26:57;13.10;99.90
23087;DHT22;11712;51.134;4.156;2022-11-15T10:29:24;13.10;99.90
23087;DHT22;11712;51.134;4.156;2022-11-15T10:31:50;13.30;99.90
23087;DHT22;11712;51.134;4.156;2022-11-15T10:34:18;13.50;99.90
23087;DHT22;11712;51.134;4.156;2022-11-15T10:36:58;13.30;99.90
23087;DHT22;11712;51.134;4.156;2022-11-15T10:39:25;13.30;99.90
23087;DHT22;11712;51.134;4.156;2022-11-15T10:41:51;13.50;99.90
23087;DHT22;11712;51.134;4.156;2022-11-15T10:47:07;13.40;99.90
23087;DHT22;11712;51.134;4.156;2022-11-15T10:53:44;13.30;99.90
23087;DHT22;11712;51.134;4.156;2022-11-15T10:56:13;13.20;99.90
23087;DHT22;11712;51.134;4.156;2022-11-15T10:58:41;13.30;99.90
23087;DHT22;11712;51.134;4.156;2022-11-15T11:01:21;13.30;99.90
23087;DHT22;11712;51.134;4.156;2022-11-15T11:04:07;13.20;99.90
23087;DHT22;11712;51.134;4.156;2022-11-15T11:06:56;13.20;99.90
23087;DHT22;11712;51.134;4.156;2022-11-15T11:11:54;13.20;99.90
23087;DHT22;11712;51.134;4.156;2022-11-15T11:14:29;13.20;99.90
23087;DHT22;11712;51.134;4.156;2022-11-15T11:17:23;13.40;99.90
23087;DHT22;11712;51.134;4.156;2022-11-15T11:20:10;13.50;99.90
23087;DHT22;11712;51.134;4.156;2022-11-15T11:36:17;14.00;99.90
23087;DHT22;11712;51.134;4.156;2022-11-15T11:42:07;13.70;99.90
23087;DHT22;11712;51.134;4.156;2022-11-15T11:47:27;13.60;99.90
23087;DHT22;11712;51.134;4.156;2022-11-15T11:50:21;13.70;99.90
23087;DHT22;11712;51.134;4.156;2022-11-15T11:53:00;13.90;99.90
23087;DHT22;11712;51.134;4.156;2022-11-15T11:55:34;13.90;99.90
23087;DHT22;11712;51.134;4.156;2022-11-15T12:00:52;14.10;99.90
23087;DHT22;11712;51.134;4.156;2022-11-15T12:03:45;14.20;99.90
23087;DHT22;11712;51.134;4.156;2022-11-15T12:09:36;14.20;99.90
23087;DHT22;11712;51.134;4.156;2022-11-15T12:12:21;14.30;99.90
23087;DHT22;11712;51.134;4.156;2022-11-15T12:15:11;14.20;99.90
23087;DHT22;11712;51.134;4.156;2022-11-15T12:17:39;14.20;99.90
23087;DHT22;11712;51.134;4.156;2022-11-15T12:20:18;14.30;99.90
23087;DHT22;11712;51.134;4.156;2022-11-15T12:23:02;14.20;99.90
23087;DHT22;11712;51.134;4.156;2022-11-15T12:25:45;14.30;99.90
23087;DHT22;11712;51.134;4.156;2022-11-15T12:30:52;14.40;99.90
23087;DHT22;11712;51.134;4.156;2022-11-15T12:33:40;14.30;99.90
23087;DHT22;11712;51.134;4.156;2022-11-15T12:41:26;14.30;99.90
23087;DHT22;11712;51.134;4.156;2022-11-15T12:43:52;14.30;99.90
23087;DHT22;11712;51.134;4.156;2022-11-15T12:46:22;14.30;99.90
23087;DHT22;11712;51.134;4.156;2022-11-15T12:48:51;14.20;99.90
23087;DHT22;11712;51.134;4.156;2022-11-15T12:52:20;14.20;99.90
23087;DHT22;11712;51.134;4.156;2022-11-15T12:54:56;14.20;99.90
23087;DHT22;11712;51.134;4.156;2022-11-15T12:57:27;14.10;99.90
23087;DHT22;11712;51.134;4.156;2022-11-15T12:59:58;14.20;99.90
23087;DHT22;11712;51.134;4.156;2022-11-15T13:17:46;14.60;99.90
23087;DHT22;11712;51.134;4.156;2022-11-15T13:28:20;14.80;99.90
23087;DHT22;11712;51.134;4.156;2022-11-15T13:33:17;14.60;99.90
23087;DHT22;11712;51.134;4.156;2022-11-15T13:35:48;14.40;99.90
23087;DHT22;11712;51.134;4.156;2022-11-15T13:38:35;14.30;99.90
23087;DHT22;11712;51.134;4.156;2022-11-15T13:41:33;14.40;99.90
23087;DHT22;11712;51.134;4.156;2022-11-15T13:43:58;14.50;99.90
23087;DHT22;11712;51.134;4.156;2022-11-15T13:46:28;14.50;99.90
23087;DHT22;11712;51.134;4.156;2022-11-15T13:48:57;14.50;99.90
23087;DHT22;11712;51.134;4.156;2022-11-15T13:54:14;14.20;99.90
23087;DHT22;11712;51.134;4.156;2022-11-15T13:57:08;14.30;99.90
23087;DHT22;11712;51.134;4.156;2022-11-15T13:59:43;14.20;99.90
23087;DHT22;11712;51.134;4.156;2022-11-15T14:02:21;14.40;99.90
23087;DHT22;11712;51.134;4.156;2022-11-15T14:07:38;14.30;99.90
23087;DHT22;11712;51.134;4.156;2022-11-15T14:10:29;14.30;99.90
23087;DHT22;11712;51.134;4.156;2022-11-15T14:12:56;14.30;99.90
23087;DHT22;11712;51.134;4.156;2022-11-15T14:15:30;14.40;99.90
23087;DHT22;11712;51.134;4.156;2022-11-15T14:17:56;14.40;99.90
23087;DHT22;11712;51.134;4.156;2022-11-15T14:22:52;14.30;99.90
23087;DHT22;11712;51.134;4.156;2022-11-15T14:25:20;14.20;99.90
23087;DHT22;11712;51.134;4.156;2022-11-15T14:30:39;14.00;99.90
23087;DHT22;11712;51.134;4.156;2022-11-15T14:35:52;14.10;99.90
23087;DHT22;11712;51.134;4.156;2022-11-15T14:38:18;14.20;99.90
23087;DHT22;11712;51.134;4.156;2022-11-15T14:40:43;14.00;99.90
23087;DHT22;11712;51.134;4.156;2022-11-15T14:43:11;13.80;99.90
23087;DHT22;11712;51.134;4.156;2022-11-15T14:45:37;13.80;99.90
23087;DHT22;11712;51.134;4.156;2022-11-15T14:48:03;13.70;99.90
23087;DHT22;11712;51.134;4.156;2022-11-15T14:50:28;13.60;99.90
23087;DHT22;11712;51.134;4.156;2022-11-15T14:52:54;13.70;99.90
23087;DHT22;11712;51.134;4.156;2022-11-15T14:55:24;13.30;99.90
23087;DHT22;11712;51.134;4.156;2022-11-15T14:57:50;13.30;99.90
23087;DHT22;11712;51.134;4.156;2022-11-15T15:00:16;13.20;99.90
23087;DHT22;11712;51.134;4.156;2022-11-15T15:02:43;13.20;99.90
23087;DHT22;11712;51.134;4.156;2022-11-15T15:07:55;13.20;99.90
23087;DHT22;11712;51.134;4.156;2022-11-15T15:10:21;13.10;99.90
23087;DHT22;11712;51.134;4.156;2022-11-15T15:12:47;13.10;99.90
23087;DHT22;11712;51.134;4.156;2022-11-15T15:15:15;13.10;99.90
23087;DHT22;11712;51.134;4.156;2022-11-15T15:17:41;13.10;99.90
23087;DHT22;11712;51.134;4.156;2022-11-15T15:20:08;13.00;99.90
23087;DHT22;11712;51.134;4.156;2022-11-15T15:22:34;12.90;99.90
23087;DHT22;11712;51.134;4.156;2022-11-15T15:24:59;13.00;99.90
23087;DHT22;11712;51.134;4.156;2022-11-15T15:27:25;13.10;99.90
23087;DHT22;11712;51.134;4.156;2022-11-15T15:29:51;13.10;99.90
23087;DHT22;11712;51.134;4.156;2022-11-15T15:32:16;13.10;99.90
23087;DHT22;11712;51.134;4.156;2022-11-15T15:34:42;12.90;99.90
23087;DHT22;11712;51.134;4.156;2022-11-15T15:37:08;13.00;99.90
23087;DHT22;11712;51.134;4.156;2022-11-15T15:39:34;12.90;99.90
23087;DHT22;11712;51.134;4.156;2022-11-15T15:42:00;12.90;99.90
23087;DHT22;11712;51.134;4.156;2022-11-15T15:44:25;13.00;99.90
23087;DHT22;11712;51.134;4.156;2022-11-15T15:46:52;13.00;99.90
23087;DHT22;11712;51.134;4.156;2022-11-15T15:49:17;12.90;99.90
23087;DHT22;11712;51.134;4.156;2022-11-15T15:52:13;12.90;99.90
23087;DHT22;11712;51.134;4.156;2022-11-15T15:54:39;12.90;99.90
23087;DHT22;11712;51.134;4.156;2022-11-15T15:57:07;13.00;99.90
23087;DHT22;11712;51.134;4.156;2022-11-15T15:59:33;13.00;99.90
23087;DHT22;11712;51.134;4.156;2022-11-15T16:01:59;12.90;99.90
23087;DHT22;11712;51.134;4.156;2022-11-15T16:04:24;12.90;99.90
23087;DHT22;11712;51.134;4.156;2022-11-15T16:06:51;12.80;99.90
23087;DHT22;11712;51.134;4.156;2022-11-15T16:09:19;12.90;99.90
23087;DHT22;11712;51.134;4.156;2022-11-15T16:12:05;12.90;99.90
23087;DHT22;11712;51.134;4.156;2022-11-15T16:14:31;13.00;99.90
23087;DHT22;11712;51.134;4.156;2022-11-15T16:16:57;13.00;99.90
23087;DHT22;11712;51.134;4.156;2022-11-15T16:19:23;13.00;99.90
23087;DHT22;11712;51.134;4.156;2022-11-15T16:21:49;13.10;99.90
23087;DHT22;11712;51.134;4.156;2022-11-15T16:24:15;12.90;99.90
23087;DHT22;11712;51.134;4.156;2022-11-15T16:26:40;13.00;99.90
23087;DHT22;11712;51.134;4.156;2022-11-15T16:29:08;13.00;99.90
23087;DHT22;11712;51.134;4.156;2022-11-15T16:31:34;13.00;99.90
23087;DHT22;11712;51.134;4.156;2022-11-15T16:34:00;12.80;99.90
23087;DHT22;11712;51.134;4.156;2022-11-15T16:36:26;12.90;99.90
23087;DHT22;11712;51.134;4.156;2022-11-15T16:38:52;13.00;99.90
23087;DHT22;11712;51.134;4.156;2022-11-15T16:41:18;13.10;99.90
23087;DHT22;11712;51.134;4.156;2022-11-15T16:43:48;13.10;99.90
23087;DHT22;11712;51.134;4.156;2022-11-15T16:46:19;13.10;99.90
23087;DHT22;11712;51.134;4.156;2022-11-15T16:48:45;13.00;99.90
23087;DHT22;11712;51.134;4.156;2022-11-15T16:52:09;13.00;99.90
23087;DHT22;11712;51.134;4.156;2022-11-15T16:54:34;13.00;99.90
23087;DHT22;11712;51.134;4.156;2022-11-15T16:57:00;13.10;99.90
23087;DHT22;11712;51.134;4.156;2022-11-15T16:59:25;13.10;99.90
23087;DHT22;11712;51.134;4.156;2022-11-15T17:01:51;13.10;99.90
23087;DHT22;11712;51.134;4.156;2022-11-15T17:04:18;13.10;99.90
23087;DHT22;11712;51.134;4.156;2022-11-15T17:06:46;13.10;99.90
23087;DHT22;11712;51.134;4.156;2022-11-15T17:09:22;13.10;99.90
23087;DHT22;11712;51.134;4.156;2022-11-15T17:11:51;13.00;99.90
23087;DHT22;11712;51.134;4.156;2022-11-15T17:14:17;13.00;99.90
23087;DHT22;11712;51.134;4.156;2022-11-15T17:16:43;13.10;99.90
23087;DHT22;11712;51.134;4.156;2022-11-15T17:19:17;13.20;99.90
23087;DHT22;11712;51.134;4.156;2022-11-15T17:21:44;13.30;99.90
23087;DHT22;11712;51.134;4.156;2022-11-15T17:24:11;13.40;99.90
23087;DHT22;11712;51.134;4.156;2022-11-15T17:26:37;13.50;99.90
23087;DHT22;11712;51.134;4.156;2022-11-15T17:29:03;13.30;99.90
23087;DHT22;11712;51.134;4.156;2022-11-15T17:31:33;13.40;99.90
23087;DHT22;11712;51.134;4.156;2022-11-15T17:34:03;13.30;99.90
23087;DHT22;11712;51.134;4.156;2022-11-15T17:36:29;13.40;99.90
23087;DHT22;11712;51.134;4.156;2022-11-15T17:38:55;13.40;99.90
23087;DHT22;11712;51.134;4.156;2022-11-15T17:41:21;13.50;99.90
23087;DHT22;11712;51.134;4.156;2022-11-15T17:43:47;13.60;99.90
23087;DHT22;11712;51.134;4.156;2022-11-15T17:46:16;13.60;99.90
23087;DHT22;11712;51.134;4.156;2022-11-15T17:48:42;13.60;99.90
23087;DHT22;11712;51.134;4.156;2022-11-15T17:51:11;13.50;99.90
23087;DHT22;11712;51.134;4.156;2022-11-15T17:53:39;13.40;99.90
23087;DHT22;11712;51.134;4.156;2022-11-15T17:56:17;13.40;99.90
23087;DHT22;11712;51.134;4.156;2022-11-15T17:58:50;13.60;99.90
23087;DHT22;11712;51.134;4.156;2022-11-15T18:01:21;13.60;99.90
23087;DHT22;11712;51.134;4.156;2022-11-15T18:03:47;13.50;99.90
23087;DHT22;11712;51.134;4.156;2022-11-15T18:06:14;13.60;99.90